createdAt,value
2023-05-14T00:01:24.169Z,3.47
2023-05-14T00:03:50.883Z,3.55
2023-05-14T00:06:17.357Z,3.70
2023-05-14T00:08:43.720Z,3.28
2023-05-14T00:11:10.362Z,3.55
2023-05-14T00:13:36.842Z,3.65
2023-05-14T00:16:03.442Z,3.58
2023-05-14T00:18:30.003Z,3.67
2023-05-14T00:20:56.516Z,3.67
2023-05-14T00:23:23.230Z,3.78
2023-05-14T00:25:49.957Z,3.88
2023-05-14T00:28:16.756Z,4.15
2023-05-14T00:30:43.218Z,3.65
2023-05-14T00:33:09.850Z,3.90
2023-05-14T00:35:36.373Z,3.92
2023-05-14T00:38:03.507Z,4.05
2023-05-14T00:40:29.947Z,4.05
2023-05-14T00:42:56.574Z,4.40
2023-05-14T00:45:23.027Z,4.68
2023-05-14T00:47:49.769Z,3.72
2023-05-14T00:50:16.660Z,4.10
2023-05-14T00:52:43.196Z,3.78
2023-05-14T00:55:11.932Z,4.18
2023-05-14T00:57:38.429Z,3.40
2023-05-14T01:00:05.412Z,4.78
2023-05-14T01:02:31.924Z,3.80
2023-05-14T01:04:58.382Z,4.15
2023-05-14T01:07:33.882Z,4.63
2023-05-14T01:10:08.413Z,4.60
2023-05-14T01:12:37.917Z,4.50
2023-05-14T01:15:04.244Z,4.90
2023-05-14T01:17:32.862Z,4.68
2023-05-14T01:20:00.284Z,5.30
2023-05-14T01:22:26.840Z,4.55
2023-05-14T01:24:53.245Z,4.50
2023-05-14T01:27:30.009Z,4.32
2023-05-14T01:29:59.380Z,4.47
2023-05-14T01:32:26.718Z,4.68
2023-05-14T01:34:53.408Z,4.95
2023-05-14T01:37:20.337Z,5.07
2023-05-14T01:39:47.039Z,4.97
2023-05-14T01:42:13.579Z,4.70
2023-05-14T01:44:40.187Z,5.47
2023-05-14T01:47:06.587Z,5.95
2023-05-14T01:49:33.139Z,5.00
2023-05-14T01:51:59.547Z,5.05
2023-05-14T01:54:25.913Z,4.70
2023-05-14T01:56:52.482Z,4.85
2023-05-14T01:59:18.907Z,5.82
2023-05-14T02:01:45.402Z,5.70
2023-05-14T02:04:11.821Z,5.00
2023-05-14T02:06:38.312Z,5.88
2023-05-14T02:09:05.160Z,5.38
2023-05-14T02:11:31.552Z,5.60
2023-05-14T02:13:58.001Z,5.60
2023-05-14T02:16:24.528Z,5.47
2023-05-14T02:18:51.011Z,5.00
2023-05-14T02:21:17.489Z,5.35
2023-05-14T02:23:44.251Z,4.93
2023-05-14T02:26:11.410Z,5.95
2023-05-14T02:28:37.915Z,5.53
2023-05-14T02:31:04.386Z,5.55
2023-05-14T02:33:30.876Z,6.22
2023-05-14T02:35:57.411Z,6.10
2023-05-14T02:38:23.812Z,5.95
2023-05-14T02:40:50.305Z,5.13
2023-05-14T02:43:16.692Z,5.55
2023-05-14T02:45:43.093Z,6.03
2023-05-14T02:48:09.541Z,6.00
2023-05-14T02:50:35.968Z,5.43
2023-05-14T02:53:02.444Z,5.82
2023-05-14T02:55:28.881Z,5.43
2023-05-14T02:57:56.817Z,5.80
2023-05-14T03:00:23.601Z,5.88
2023-05-14T03:02:50.392Z,6.00
2023-05-14T03:05:17.239Z,5.32
2023-05-14T03:07:43.635Z,5.97
2023-05-14T03:10:10.335Z,5.70
2023-05-14T03:12:36.707Z,5.72
2023-05-14T03:15:03.186Z,6.63
2023-05-14T03:17:29.755Z,6.68
2023-05-14T03:19:56.178Z,6.53
2023-05-14T03:22:22.600Z,5.88
2023-05-14T03:24:48.987Z,5.18
2023-05-14T03:27:15.579Z,5.10
2023-05-14T03:29:42.007Z,6.13
2023-05-14T03:32:08.498Z,5.60
2023-05-14T03:34:34.952Z,5.45
2023-05-14T03:37:01.472Z,4.97
2023-05-14T03:39:27.835Z,6.13
2023-05-14T03:41:54.320Z,5.55
2023-05-14T03:44:20.895Z,5.97
2023-05-14T03:46:47.336Z,5.82
2023-05-14T03:49:13.767Z,5.28
2023-05-14T03:51:40.795Z,5.50
2023-05-14T03:54:07.219Z,6.28
2023-05-14T03:56:33.618Z,5.80
2023-05-14T03:59:00.037Z,5.85
2023-05-14T04:01:26.396Z,5.78
2023-05-14T04:03:52.879Z,6.00
2023-05-14T04:06:19.482Z,6.38
2023-05-14T04:08:45.924Z,7.15
2023-05-14T04:11:12.329Z,6.47
2023-05-14T04:13:38.882Z,6.38
2023-05-14T04:16:05.706Z,6.55
2023-05-14T04:18:35.278Z,6.15
2023-05-14T04:21:02.076Z,5.75
2023-05-14T04:23:29.658Z,7.25
2023-05-14T04:25:56.059Z,7.72
2023-05-14T04:28:22.491Z,7.57
2023-05-14T04:30:49.018Z,7.95
2023-05-14T04:33:15.783Z,7.63
2023-05-14T04:35:42.197Z,7.72
2023-05-14T04:38:09.141Z,7.75
2023-05-14T04:40:35.729Z,7.88
2023-05-14T04:43:02.129Z,9.07
2023-05-14T04:45:28.639Z,8.73
2023-05-14T04:47:55.143Z,7.95
2023-05-14T04:50:22.064Z,7.10
2023-05-14T04:52:48.711Z,7.75
2023-05-14T04:55:15.157Z,8.40
2023-05-14T04:57:41.721Z,7.47
2023-05-14T05:00:09.729Z,8.18
2023-05-14T05:02:36.203Z,8.50
2023-05-14T05:05:04.139Z,8.20
2023-05-14T05:07:30.638Z,7.82
2023-05-14T05:09:57.063Z,8.20
2023-05-14T05:12:23.438Z,7.82
2023-05-14T05:14:49.870Z,10.02
2023-05-14T05:17:16.233Z,9.27
2023-05-14T05:19:44.522Z,9.93
2023-05-14T05:22:11.360Z,9.38
2023-05-14T05:24:37.858Z,9.40
2023-05-14T05:27:05.504Z,9.60
2023-05-14T05:29:32.074Z,8.70
2023-05-14T05:31:58.626Z,10.15
2023-05-14T05:34:25.046Z,9.95
2023-05-14T05:36:51.686Z,10.90
2023-05-14T05:39:18.162Z,12.95
2023-05-14T05:41:44.758Z,13.18
2023-05-14T05:44:11.263Z,14.25
2023-05-14T05:46:37.807Z,14.43
2023-05-14T05:49:04.258Z,13.35
2023-05-14T05:51:30.664Z,14.88
2023-05-14T05:53:57.116Z,14.35
2023-05-14T05:56:23.548Z,13.95
2023-05-14T05:58:50.043Z,13.02
2023-05-14T06:01:16.432Z,13.02
2023-05-14T06:03:42.840Z,14.27
2023-05-14T06:06:09.280Z,13.13
2023-05-14T06:08:35.866Z,12.48
2023-05-14T06:11:02.260Z,13.00
2023-05-14T06:13:28.679Z,13.57
2023-05-14T06:15:55.074Z,13.60
2023-05-14T06:18:21.490Z,14.55
2023-05-14T06:20:48.020Z,12.55
2023-05-14T06:23:14.473Z,13.95
2023-05-14T06:25:41.002Z,12.70
2023-05-14T06:28:07.453Z,11.88
2023-05-14T06:30:33.897Z,12.77
2023-05-14T06:33:00.681Z,12.07
2023-05-14T06:35:27.145Z,12.32
2023-05-14T06:37:53.535Z,12.68
2023-05-14T06:40:20.085Z,12.38
2023-05-14T06:42:46.476Z,12.55
2023-05-14T06:45:12.846Z,12.52
2023-05-14T06:47:39.322Z,11.00
2023-05-14T06:50:05.925Z,11.60
2023-05-14T06:52:32.337Z,11.85
2023-05-14T06:54:58.842Z,11.35
2023-05-14T06:57:25.323Z,11.35
2023-05-14T06:59:51.984Z,11.10
2023-05-14T07:02:18.393Z,11.30
2023-05-14T07:04:44.828Z,10.23
2023-05-14T07:07:15.250Z,10.25
2023-05-14T07:09:42.330Z,10.70
2023-05-14T07:12:08.780Z,10.05
2023-05-14T07:14:35.350Z,10.60
2023-05-14T07:17:02.122Z,9.90
2023-05-14T07:19:30.131Z,10.10
2023-05-14T07:21:57.300Z,9.43
2023-05-14T07:24:24.195Z,9.48
2023-05-14T07:26:51.276Z,10.23
2023-05-14T07:29:17.725Z,8.93
2023-05-14T07:31:46.511Z,9.43
2023-05-14T07:34:13.020Z,10.80
2023-05-14T07:36:42.811Z,9.68
2023-05-14T07:39:10.478Z,9.57
2023-05-14T07:41:39.121Z,9.93
2023-05-14T07:44:08.698Z,9.70
2023-05-14T07:46:36.488Z,9.93
2023-05-14T07:49:03.292Z,8.85
2023-05-14T07:51:29.756Z,9.48
2023-05-14T07:53:56.110Z,10.73
2023-05-14T07:56:22.987Z,9.02
2023-05-14T07:58:50.294Z,9.48
2023-05-14T08:01:16.885Z,9.35
2023-05-14T08:03:43.545Z,9.30
2023-05-14T08:06:10.189Z,9.23
2023-05-14T08:08:36.632Z,9.18
2023-05-14T08:11:03.639Z,9.88
2023-05-14T08:13:30.125Z,8.10
2023-05-14T08:15:56.558Z,8.70
2023-05-14T08:18:22.962Z,8.40
2023-05-14T08:20:49.513Z,8.63
2023-05-14T08:23:15.983Z,8.73
2023-05-14T08:25:42.408Z,8.10
2023-05-14T08:28:08.861Z,8.70
2023-05-14T08:30:35.392Z,8.45
2023-05-14T08:33:01.940Z,9.13
2023-05-14T08:35:28.643Z,8.23
2023-05-14T08:37:56.933Z,7.93
2023-05-14T08:40:23.696Z,9.00
2023-05-14T08:42:51.397Z,8.60
2023-05-14T08:45:21.892Z,8.13
2023-05-14T08:47:50.536Z,8.45
2023-05-14T08:50:19.929Z,8.15
2023-05-14T08:52:48.389Z,8.38
2023-05-14T08:55:15.332Z,8.20
2023-05-14T08:57:41.901Z,7.22
2023-05-14T09:00:08.687Z,6.90
2023-05-14T09:02:35.994Z,7.80
2023-05-14T09:05:03.580Z,7.80
2023-05-14T09:07:29.970Z,8.00
2023-05-14T09:09:56.450Z,7.63
2023-05-14T09:12:24.127Z,6.80
2023-05-14T09:14:51.121Z,7.47
2023-05-14T09:17:18.273Z,7.60
2023-05-14T09:19:47.273Z,7.00
2023-05-14T09:22:14.397Z,7.25
2023-05-14T09:24:41.647Z,7.68
2023-05-14T09:27:08.335Z,7.25
2023-05-14T09:29:34.861Z,7.53
2023-05-14T09:32:05.743Z,7.15
2023-05-14T09:34:34.292Z,7.35
2023-05-14T09:37:10.130Z,7.80
2023-05-14T09:39:37.793Z,6.90
2023-05-14T09:42:04.361Z,7.43
2023-05-14T09:44:31.975Z,7.03
2023-05-14T09:46:58.472Z,6.88
2023-05-14T09:49:24.891Z,8.00
2023-05-14T09:51:51.539Z,8.07
2023-05-14T09:54:18.250Z,8.32
2023-05-14T09:56:44.919Z,7.28
2023-05-14T09:59:11.489Z,7.90
2023-05-14T10:01:38.045Z,7.20
2023-05-14T10:04:06.669Z,8.43
2023-05-14T10:06:35.792Z,7.30
2023-05-14T10:09:04.064Z,7.55
2023-05-14T10:11:35.293Z,7.85
2023-05-14T10:14:04.731Z,8.02
2023-05-14T10:16:35.433Z,8.02
2023-05-14T10:19:06.099Z,8.27
2023-05-14T10:21:34.858Z,7.88
2023-05-14T10:24:01.416Z,7.75
2023-05-14T10:26:28.302Z,8.00
2023-05-14T10:28:55.950Z,7.75
2023-05-14T10:31:41.068Z,7.10
2023-05-14T10:34:27.427Z,7.70
2023-05-14T10:36:53.855Z,8.18
2023-05-14T10:39:20.270Z,6.80
2023-05-14T10:41:47.323Z,6.75
2023-05-14T10:44:13.972Z,6.63
2023-05-14T10:46:40.375Z,6.07
2023-05-14T10:49:07.035Z,5.25
2023-05-14T10:51:33.760Z,4.78
2023-05-14T10:54:01.083Z,5.25
2023-05-14T10:56:43.542Z,5.70
2023-05-14T10:59:32.597Z,5.78
2023-05-14T11:02:15.105Z,5.68
2023-05-14T11:04:54.979Z,5.97
2023-05-14T11:07:24.032Z,6.47
2023-05-14T11:09:51.146Z,6.63
2023-05-14T11:12:18.117Z,7.18
2023-05-14T11:14:44.643Z,7.32
2023-05-14T11:17:11.612Z,7.10
2023-05-14T11:19:38.075Z,6.43
2023-05-14T11:22:04.615Z,6.50
2023-05-14T11:24:31.058Z,6.80
2023-05-14T11:26:57.528Z,6.55
2023-05-14T11:29:23.922Z,6.10
2023-05-14T11:31:50.653Z,5.57
2023-05-14T11:34:17.221Z,6.68
2023-05-14T11:36:43.657Z,7.82
2023-05-14T11:39:17.376Z,7.25
2023-05-14T11:41:44.703Z,7.25
2023-05-14T11:44:11.212Z,6.25
2023-05-14T11:46:37.730Z,6.32
2023-05-14T11:49:04.632Z,6.75
2023-05-14T11:51:32.002Z,7.03
2023-05-14T11:54:01.177Z,6.57
2023-05-14T11:56:27.559Z,7.00
2023-05-14T11:58:58.189Z,6.30
2023-05-14T12:01:24.647Z,6.80
2023-05-14T12:03:51.301Z,6.80
2023-05-14T12:06:18.211Z,6.70
2023-05-14T12:08:44.779Z,6.07
2023-05-14T12:11:11.230Z,7.13
2023-05-14T12:13:37.631Z,7.53
2023-05-14T12:16:05.357Z,7.57
2023-05-14T12:18:32.426Z,7.07
2023-05-14T12:21:02.690Z,6.97
2023-05-14T12:23:30.236Z,7.00
2023-05-14T12:26:01.340Z,7.32
2023-05-14T12:28:28.684Z,6.20
2023-05-14T12:30:58.493Z,6.03
2023-05-14T12:33:26.851Z,6.75
2023-05-14T12:36:09.895Z,6.13
2023-05-14T12:38:41.314Z,6.28
2023-05-14T12:41:07.789Z,5.97
2023-05-14T12:43:34.167Z,5.88
2023-05-14T12:46:00.642Z,7.97
2023-05-14T12:48:27.075Z,6.43
2023-05-14T12:50:53.456Z,8.40
2023-05-14T12:53:19.922Z,8.32
2023-05-14T12:55:46.555Z,7.95
2023-05-14T12:58:12.990Z,7.72
2023-05-14T13:00:39.689Z,9.20
2023-05-14T13:03:06.142Z,5.97
2023-05-14T13:05:33.311Z,5.93
2023-05-14T13:08:00.653Z,5.57
2023-05-14T13:10:27.085Z,5.82
2023-05-14T13:12:53.487Z,4.80
2023-05-14T13:15:20.058Z,5.13
2023-05-14T13:17:46.602Z,4.88
2023-05-14T13:20:13.100Z,5.35
2023-05-14T13:22:39.618Z,5.45
2023-05-14T13:25:06.402Z,4.47
2023-05-14T13:27:33.724Z,4.88
2023-05-14T13:30:00.215Z,4.75
2023-05-14T13:32:26.612Z,4.70
2023-05-14T13:34:53.012Z,4.30
2023-05-14T13:37:19.819Z,3.97
2023-05-14T13:39:46.225Z,4.13
2023-05-14T13:42:12.596Z,4.65
2023-05-14T13:44:39.006Z,3.22
2023-05-14T13:47:05.685Z,3.40
2023-05-14T13:49:32.093Z,4.43
2023-05-14T13:51:58.560Z,4.15
2023-05-14T13:54:25.144Z,4.15
2023-05-14T13:56:52.058Z,4.22
2023-05-14T13:59:18.560Z,3.33
2023-05-14T14:01:45.070Z,3.67
2023-05-14T14:04:11.668Z,4.10
2023-05-14T14:06:38.045Z,3.63
2023-05-14T14:09:04.491Z,3.22
2023-05-14T14:11:30.961Z,3.05
2023-05-14T14:13:57.512Z,2.28
2023-05-14T14:16:23.962Z,1.80
2023-05-14T14:18:50.409Z,2.05
2023-05-14T14:21:18.249Z,1.73
2023-05-14T14:23:48.205Z,1.58
2023-05-14T14:26:14.694Z,2.03
2023-05-14T14:28:41.136Z,1.65
2023-05-14T14:31:07.882Z,1.83
2023-05-14T14:33:34.369Z,2.30
2023-05-14T14:36:00.783Z,3.35
2023-05-14T14:38:27.220Z,3.13
2023-05-14T14:40:54.233Z,3.00
2023-05-14T14:43:20.768Z,2.75
2023-05-14T14:45:48.901Z,2.35
2023-05-14T14:48:34.287Z,3.33
2023-05-14T14:51:03.702Z,2.75
2023-05-14T14:53:30.474Z,2.50
2023-05-14T14:55:57.541Z,2.67
2023-05-14T14:58:24.429Z,2.33
2023-05-14T15:00:51.779Z,2.22
2023-05-14T15:03:18.782Z,3.17
2023-05-14T15:05:47.901Z,2.90
2023-05-14T15:08:14.314Z,2.47
2023-05-14T15:10:41.574Z,2.65
2023-05-14T15:13:08.576Z,2.70
2023-05-14T15:15:35.741Z,2.50
2023-05-14T15:18:02.814Z,2.67
2023-05-14T15:20:29.341Z,2.22
2023-05-14T15:22:55.906Z,2.38
2023-05-14T15:25:23.139Z,2.25
2023-05-14T15:27:50.266Z,2.60
2023-05-14T15:30:16.848Z,2.60
2023-05-14T15:32:44.589Z,2.03
2023-05-14T15:35:11.144Z,3.00
2023-05-14T15:37:38.703Z,4.00
2023-05-14T15:40:08.127Z,3.83
2023-05-14T15:42:44.148Z,3.47
2023-05-14T15:45:12.294Z,2.83
2023-05-14T15:47:39.145Z,4.05
2023-05-14T15:50:06.085Z,2.90
2023-05-14T15:52:32.551Z,2.03
2023-05-14T15:54:59.603Z,2.00
2023-05-14T15:57:26.302Z,2.20
2023-05-14T15:59:52.878Z,1.40
2023-05-14T16:02:19.326Z,1.30
2023-05-14T16:04:45.769Z,1.80
2023-05-14T16:07:13.080Z,1.90
2023-05-14T16:09:44.374Z,1.30
2023-05-14T16:12:16.663Z,1.35
2023-05-14T16:14:48.036Z,1.80
2023-05-14T16:17:14.466Z,2.38
2023-05-14T16:19:41.032Z,1.92
2023-05-14T16:22:07.534Z,2.45
2023-05-14T16:24:33.934Z,2.00
2023-05-14T16:27:00.844Z,1.50
2023-05-14T16:29:27.365Z,1.58
2023-05-14T16:31:53.877Z,1.58
2023-05-14T16:34:20.304Z,1.92
2023-05-14T16:36:46.713Z,1.52
2023-05-14T16:39:13.221Z,1.55
2023-05-14T16:41:39.597Z,1.30
2023-05-14T16:44:06.262Z,2.10
2023-05-14T16:46:32.995Z,1.80
2023-05-14T16:48:59.471Z,2.30
2023-05-14T16:51:25.927Z,2.83
2023-05-14T16:53:54.704Z,3.22
2023-05-14T16:56:22.339Z,2.58
2023-05-14T16:58:48.788Z,1.83
2023-05-14T17:01:15.742Z,1.88
2023-05-14T17:03:42.302Z,2.10
2023-05-14T17:06:10.065Z,2.30
2023-05-14T17:08:36.530Z,2.08
2023-05-14T17:11:05.823Z,1.85
2023-05-14T17:13:33.108Z,2.50
2023-05-14T17:16:00.164Z,2.72
2023-05-14T17:18:26.712Z,2.63
2023-05-14T17:20:53.207Z,2.15
2023-05-14T17:23:20.377Z,1.85
2023-05-14T17:25:46.793Z,2.00
2023-05-14T17:28:13.171Z,2.17
2023-05-14T17:30:39.663Z,2.03
2023-05-14T17:33:06.316Z,2.25
2023-05-14T17:35:36.183Z,2.08
2023-05-14T17:38:03.264Z,1.92
2023-05-14T17:40:29.717Z,2.47
2023-05-14T17:42:56.148Z,2.00
2023-05-14T17:45:22.778Z,2.58
2023-05-14T17:47:49.668Z,2.17
2023-05-14T17:50:16.146Z,2.10
2023-05-14T17:52:44.227Z,2.28
2023-05-14T17:55:11.081Z,2.33
2023-05-14T17:57:37.795Z,2.65
2023-05-14T18:00:07.563Z,2.85
2023-05-14T18:02:34.024Z,3.13
2023-05-14T18:05:00.614Z,3.00
2023-05-14T18:07:26.971Z,2.67
2023-05-14T18:09:53.393Z,2.80
2023-05-14T18:12:19.855Z,2.90
2023-05-14T18:14:46.265Z,2.92
2023-05-14T18:17:12.873Z,3.13
2023-05-14T18:19:40.954Z,3.00
2023-05-14T18:22:07.484Z,2.78
2023-05-14T18:24:34.101Z,3.08
2023-05-14T18:27:00.752Z,2.90
2023-05-14T18:29:27.214Z,3.22
2023-05-14T18:31:53.688Z,2.88
2023-05-14T18:34:20.183Z,2.90
2023-05-14T18:36:46.664Z,3.03
2023-05-14T18:39:13.096Z,2.75
2023-05-14T18:41:39.533Z,3.17
2023-05-14T18:44:06.147Z,3.00
2023-05-14T18:46:32.608Z,3.30
2023-05-14T18:48:59.198Z,2.58
2023-05-14T18:51:25.637Z,2.63
2023-05-14T18:53:52.154Z,3.13
2023-05-14T18:56:18.642Z,2.80
2023-05-14T18:58:45.100Z,3.15
2023-05-14T19:01:11.540Z,3.22
2023-05-14T19:03:38.138Z,3.95
2023-05-14T19:06:04.653Z,4.07
2023-05-14T19:08:31.077Z,3.40
2023-05-14T19:10:57.462Z,4.03
2023-05-14T19:13:24.306Z,3.78
2023-05-14T19:15:50.916Z,3.60
2023-05-14T19:18:17.684Z,3.50
2023-05-14T19:20:46.241Z,3.10
2023-05-14T19:23:12.733Z,4.43
2023-05-14T19:25:39.156Z,4.03
2023-05-14T19:28:05.849Z,4.35
2023-05-14T19:30:32.328Z,4.30
2023-05-14T19:32:58.844Z,4.00
2023-05-14T19:35:25.708Z,3.33
2023-05-14T19:37:52.268Z,3.70
2023-05-14T19:40:18.740Z,3.40
2023-05-14T19:42:45.261Z,3.28
2023-05-14T19:45:11.723Z,3.28
2023-05-14T19:47:38.240Z,5.05
2023-05-14T19:50:04.950Z,4.82
2023-05-14T19:52:31.467Z,3.95
2023-05-14T19:54:58.166Z,5.18
2023-05-14T19:57:24.591Z,4.18
2023-05-14T19:59:51.060Z,4.30
2023-05-14T20:02:21.886Z,4.22
2023-05-14T20:04:49.657Z,3.80
2023-05-14T20:07:16.080Z,3.88
2023-05-14T20:09:42.598Z,4.38
2023-05-14T20:12:09.338Z,4.60
2023-05-14T20:14:35.981Z,4.45
2023-05-14T20:17:03.125Z,3.42
2023-05-14T20:19:29.595Z,4.13
2023-05-14T20:21:56.440Z,4.35
2023-05-14T20:24:22.917Z,3.05
2023-05-14T20:26:49.357Z,3.70
2023-05-14T20:29:15.726Z,3.90
2023-05-14T20:31:42.200Z,3.80
2023-05-14T20:34:08.682Z,4.07
2023-05-14T20:36:35.834Z,3.30
2023-05-14T20:39:02.325Z,3.83
2023-05-14T20:41:28.721Z,3.45
2023-05-14T20:43:55.139Z,3.50
2023-05-14T20:46:21.664Z,3.67
2023-05-14T20:48:48.659Z,3.50
2023-05-14T20:51:15.094Z,3.47
2023-05-14T20:53:41.710Z,3.08
2023-05-14T20:56:08.087Z,3.70
2023-05-14T20:58:34.984Z,4.05
2023-05-14T21:01:01.408Z,3.80
2023-05-14T21:03:28.017Z,3.55
2023-05-14T21:05:56.039Z,3.08
2023-05-14T21:08:22.664Z,2.97
2023-05-14T21:10:49.068Z,3.42
2023-05-14T21:13:15.440Z,3.22
2023-05-14T21:15:41.878Z,3.35
2023-05-14T21:18:08.359Z,3.25
2023-05-14T21:20:34.782Z,3.60
2023-05-14T21:23:01.213Z,3.00
2023-05-14T21:25:45.153Z,3.50
2023-05-14T21:28:11.568Z,4.03
2023-05-14T21:30:38.005Z,4.03
2023-05-14T21:33:04.480Z,4.22
2023-05-14T21:35:31.085Z,4.25
2023-05-14T21:37:57.636Z,3.75
2023-05-14T21:40:24.104Z,3.70
2023-05-14T21:42:50.995Z,3.83
2023-05-14T21:45:17.448Z,3.60
2023-05-14T21:47:43.961Z,3.42
2023-05-14T21:50:10.718Z,3.00
2023-05-14T21:52:37.995Z,3.33
2023-05-14T21:55:04.555Z,3.00
2023-05-14T21:57:34.304Z,3.22
2023-05-14T22:00:01.081Z,3.60
2023-05-14T22:02:27.539Z,3.28
2023-05-14T22:04:53.993Z,3.38
2023-05-14T22:07:21.134Z,3.55
2023-05-14T22:09:47.532Z,3.17
2023-05-14T22:12:13.965Z,3.10
2023-05-14T22:14:40.414Z,3.60
2023-05-14T22:17:07.155Z,5.80
2023-05-14T22:19:33.595Z,5.25
2023-05-14T22:22:00.039Z,5.00
2023-05-14T22:24:26.570Z,5.57
2023-05-14T22:26:52.993Z,5.03
2023-05-14T22:29:19.413Z,5.32
2023-05-14T22:31:46.000Z,5.10
2023-05-14T22:34:12.447Z,4.80
2023-05-14T22:36:38.901Z,5.93
2023-05-14T22:39:05.352Z,5.28
2023-05-14T22:41:31.864Z,5.68
2023-05-14T22:43:58.296Z,4.53
2023-05-14T22:46:24.776Z,4.50
2023-05-14T22:48:51.218Z,4.30
2023-05-14T22:51:17.886Z,4.43
2023-05-14T22:53:44.413Z,5.03
2023-05-14T22:56:10.816Z,7.43
2023-05-14T22:58:37.222Z,7.15
2023-05-14T23:01:03.710Z,7.65
2023-05-14T23:03:30.170Z,8.50
2023-05-14T23:05:56.620Z,7.28
2023-05-14T23:08:23.061Z,6.50
2023-05-14T23:10:49.432Z,6.10
2023-05-14T23:13:15.863Z,5.10
2023-05-14T23:15:42.822Z,5.03
2023-05-14T23:18:09.381Z,5.13
2023-05-14T23:20:35.772Z,5.45
2023-05-14T23:23:02.232Z,5.47
2023-05-14T23:25:28.772Z,5.35
2023-05-14T23:27:55.276Z,4.95
2023-05-14T23:30:21.749Z,4.82
2023-05-14T23:32:48.229Z,4.85
2023-05-14T23:35:14.775Z,4.60
2023-05-14T23:37:47.002Z,5.80
2023-05-14T23:40:14.213Z,5.28
2023-05-14T23:42:40.714Z,4.88
2023-05-14T23:45:07.482Z,5.00
2023-05-14T23:47:33.990Z,5.10
2023-05-14T23:50:00.497Z,4.85
2023-05-14T23:52:26.962Z,4.85
2023-05-14T23:54:53.539Z,5.03
2023-05-14T23:57:19.997Z,4.45
2023-05-14T23:59:46.512Z,4.57
